sensor_id;sensor_type;location;lat;lon;timestamp;pressure;altitude;pressure_sealevel;temperature;humidity
64292;BME280;50628;51.008;13.658;2023-04-20T00:03:37;100016.66;;;4.96;100.00
64292;BME280;50628;51.008;13.658;2023-04-20T00:08:39;100005.06;;;4.88;100.00
64292;BME280;50628;51.008;13.658;2023-04-20T00:13:42;100004.25;;;4.87;100.00
64292;BME280;50628;51.008;13.658;2023-04-20T00:18:45;100004.00;;;5.08;100.00
64292;BME280;50628;51.008;13.658;2023-04-20T00:23:47;100002.78;;;5.15;100.00
64292;BME280;50628;51.008;13.658;2023-04-20T00:28:50;99997.38;;;4.37;100.00
64292;BME280;50628;51.008;13.658;2023-04-20T00:33:52;99996.56;;;4.37;100.00
64292;BME280;50628;51.008;13.658;2023-04-20T00:38:54;99994.22;;;4.81;100.00
64292;BME280;50628;51.008;13.658;2023-04-20T00:43:57;99994.50;;;4.76;100.00
64292;BME280;50628;51.008;13.658;2023-04-20T00:48:59;99989.81;;;4.67;100.00
64292;BME280;50628;51.008;13.658;2023-04-20T00:54:01;99989.88;;;4.66;100.00
64292;BME280;50628;51.008;13.658;2023-04-20T00:59:05;99986.72;;;4.61;100.00
64292;BME280;50628;51.008;13.658;2023-04-20T01:04:08;99986.03;;;4.41;100.00
64292;BME280;50628;51.008;13.658;2023-04-20T01:09:10;99988.78;;;4.54;100.00
64292;BME280;50628;51.008;13.658;2023-04-20T01:14:13;99991.56;;;4.33;100.00
64292;BME280;50628;51.008;13.658;2023-04-20T01:19:15;99987.31;;;3.98;100.00
64292;BME280;50628;51.008;13.658;2023-04-20T01:24:18;99990.19;;;3.74;100.00
64292;BME280;50628;51.008;13.658;2023-04-20T01:29:20;99989.44;;;3.36;100.00
64292;BME280;50628;51.008;13.658;2023-04-20T01:34:22;99983.75;;;3.29;100.00
64292;BME280;50628;51.008;13.658;2023-04-20T01:39:25;99980.41;;;3.27;100.00
64292;BME280;50628;51.008;13.658;2023-04-20T01:44:28;99974.78;;;3.38;100.00
64292;BME280;50628;51.008;13.658;2023-04-20T01:49:30;99975.66;;;3.37;100.00
64292;BME280;50628;51.008;13.658;2023-04-20T01:54:33;99979.06;;;3.37;100.00
64292;BME280;50628;51.008;13.658;2023-04-20T01:59:35;99971.88;;;3.27;100.00
64292;BME280;50628;51.008;13.658;2023-04-20T02:04:37;99976.88;;;3.11;100.00
64292;BME280;50628;51.008;13.658;2023-04-20T02:09:42;99979.25;;;3.15;100.00
64292;BME280;50628;51.008;13.658;2023-04-20T02:14:44;99971.91;;;3.08;100.00
64292;BME280;50628;51.008;13.658;2023-04-20T02:19:45;99976.75;;;3.33;100.00
64292;BME280;50628;51.008;13.658;2023-04-20T02:24:49;99979.88;;;3.20;100.00
64292;BME280;50628;51.008;13.658;2023-04-20T02:29:51;99978.91;;;3.23;100.00
64292;BME280;50628;51.008;13.658;2023-04-20T02:34:52;99980.41;;;3.27;100.00
64292;BME280;50628;51.008;13.658;2023-04-20T02:39:56;99974.94;;;3.52;100.00
64292;BME280;50628;51.008;13.658;2023-04-20T02:45:00;99982.56;;;3.36;100.00
64292;BME280;50628;51.008;13.658;2023-04-20T02:50:03;99977.56;;;3.33;100.00
64292;BME280;50628;51.008;13.658;2023-04-20T02:55:14;99978.25;;;3.37;100.00
64292;BME280;50628;51.008;13.658;2023-04-20T03:00:20;99982.22;;;3.25;100.00
64292;BME280;50628;51.008;13.658;2023-04-20T03:05:36;99981.75;;;3.17;100.00
64292;BME280;50628;51.008;13.658;2023-04-20T03:10:40;99988.84;;;3.31;100.00
64292;BME280;50628;51.008;13.658;2023-04-20T03:15:49;100004.28;;;3.31;100.00
64292;BME280;50628;51.008;13.658;2023-04-20T03:21:05;99999.38;;;3.24;100.00
64292;BME280;50628;51.008;13.658;2023-04-20T03:26:09;100000.56;;;3.17;100.00
64292;BME280;50628;51.008;13.658;2023-04-20T03:31:31;100000.72;;;3.14;100.00
64292;BME280;50628;51.008;13.658;2023-04-20T03:36:33;100003.63;;;3.07;100.00
64292;BME280;50628;51.008;13.658;2023-04-20T03:41:36;100007.31;;;3.20;100.00
64292;BME280;50628;51.008;13.658;2023-04-20T03:46:38;100010.59;;;3.04;100.00
64292;BME280;50628;51.008;13.658;2023-04-20T03:51:40;100014.50;;;3.13;100.00
64292;BME280;50628;51.008;13.658;2023-04-20T03:56:43;100008.88;;;3.05;100.00
64292;BME280;50628;51.008;13.658;2023-04-20T04:01:47;100010.50;;;2.87;100.00
64292;BME280;50628;51.008;13.658;2023-04-20T04:06:50;100005.06;;;2.95;100.00
64292;BME280;50628;51.008;13.658;2023-04-20T04:11:53;100010.69;;;3.03;100.00
64292;BME280;50628;51.008;13.658;2023-04-20T04:16:57;100016.34;;;2.91;100.00
64292;BME280;50628;51.008;13.658;2023-04-20T04:22:00;100022.34;;;2.91;100.00
64292;BME280;50628;51.008;13.658;2023-04-20T04:27:08;100029.91;;;2.94;100.00
64292;BME280;50628;51.008;13.658;2023-04-20T04:32:17;100029.44;;;3.05;100.00
64292;BME280;50628;51.008;13.658;2023-04-20T04:37:19;100032.22;;;3.00;100.00
64292;BME280;50628;51.008;13.658;2023-04-20T04:42:28;100041.34;;;2.87;100.00
64292;BME280;50628;51.008;13.658;2023-04-20T04:47:35;100038.16;;;2.82;100.00
64292;BME280;50628;51.008;13.658;2023-04-20T04:52:37;100030.56;;;2.79;100.00
64292;BME280;50628;51.008;13.658;2023-04-20T04:57:40;100033.16;;;2.79;100.00
64292;BME280;50628;51.008;13.658;2023-04-20T05:02:42;100033.81;;;2.64;100.00
64292;BME280;50628;51.008;13.658;2023-04-20T05:07:44;100045.66;;;2.47;100.00
64292;BME280;50628;51.008;13.658;2023-04-20T05:12:47;100058.50;;;2.47;100.00
64292;BME280;50628;51.008;13.658;2023-04-20T05:17:49;100060.81;;;2.33;100.00
64292;BME280;50628;51.008;13.658;2023-04-20T05:22:51;100077.19;;;2.30;100.00
64292;BME280;50628;51.008;13.658;2023-04-20T05:27:54;100077.31;;;2.48;100.00
64292;BME280;50628;51.008;13.658;2023-04-20T05:32:56;100086.31;;;2.58;100.00
64292;BME280;50628;51.008;13.658;2023-04-20T05:37:58;100076.59;;;2.44;100.00
64292;BME280;50628;51.008;13.658;2023-04-20T05:43:03;100092.09;;;2.63;100.00
64292;BME280;50628;51.008;13.658;2023-04-20T05:48:05;100082.69;;;2.42;100.00
64292;BME280;50628;51.008;13.658;2023-04-20T05:53:07;100087.91;;;2.60;100.00
64292;BME280;50628;51.008;13.658;2023-04-20T05:58:10;100087.72;;;2.86;100.00
64292;BME280;50628;51.008;13.658;2023-04-20T06:03:12;100066.72;;;2.76;100.00
64292;BME280;50628;51.008;13.658;2023-04-20T06:08:14;100081.31;;;2.94;100.00
64292;BME280;50628;51.008;13.658;2023-04-20T06:13:18;100079.47;;;2.98;100.00
64292;BME280;50628;51.008;13.658;2023-04-20T06:18:20;100079.09;;;2.87;100.00
64292;BME280;50628;51.008;13.658;2023-04-20T06:23:22;100079.97;;;3.06;100.00
64292;BME280;50628;51.008;13.658;2023-04-20T06:28:25;100071.94;;;2.93;100.00
64292;BME280;50628;51.008;13.658;2023-04-20T06:33:27;100083.00;;;2.95;100.00
64292;BME280;50628;51.008;13.658;2023-04-20T06:38:29;100076.84;;;2.79;100.00
64292;BME280;50628;51.008;13.658;2023-04-20T06:43:32;100085.44;;;3.17;100.00
64292;BME280;50628;51.008;13.658;2023-04-20T06:48:34;100074.69;;;3.28;100.00
64292;BME280;50628;51.008;13.658;2023-04-20T06:53:36;100073.66;;;3.13;100.00
64292;BME280;50628;51.008;13.658;2023-04-20T06:58:39;100082.03;;;2.98;100.00
64292;BME280;50628;51.008;13.658;2023-04-20T07:03:41;100083.31;;;3.08;100.00
64292;BME280;50628;51.008;13.658;2023-04-20T07:08:43;100089.63;;;3.01;100.00
64292;BME280;50628;51.008;13.658;2023-04-20T07:13:46;100087.81;;;3.03;100.00
64292;BME280;50628;51.008;13.658;2023-04-20T07:18:48;100083.03;;;2.75;100.00
64292;BME280;50628;51.008;13.658;2023-04-20T07:23:50;100096.41;;;2.63;100.00
64292;BME280;50628;51.008;13.658;2023-04-20T07:28:53;100097.06;;;2.68;100.00
64292;BME280;50628;51.008;13.658;2023-04-20T07:33:55;100105.97;;;2.38;100.00
64292;BME280;50628;51.008;13.658;2023-04-20T07:38:57;100109.44;;;2.58;100.00
64292;BME280;50628;51.008;13.658;2023-04-20T07:44:00;100099.03;;;3.21;100.00
64292;BME280;50628;51.008;13.658;2023-04-20T07:49:02;100101.34;;;3.46;100.00
64292;BME280;50628;51.008;13.658;2023-04-20T07:54:04;100108.91;;;3.68;100.00
64292;BME280;50628;51.008;13.658;2023-04-20T07:59:07;100108.34;;;3.61;100.00
64292;BME280;50628;51.008;13.658;2023-04-20T08:04:09;100106.91;;;3.92;100.00
64292;BME280;50628;51.008;13.658;2023-04-20T08:09:11;100110.41;;;3.91;100.00
64292;BME280;50628;51.008;13.658;2023-04-20T08:14:15;100109.59;;;4.08;100.00
64292;BME280;50628;51.008;13.658;2023-04-20T08:19:17;100096.66;;;4.09;100.00
64292;BME280;50628;51.008;13.658;2023-04-20T08:24:19;100084.50;;;4.81;100.00
64292;BME280;50628;51.008;13.658;2023-04-20T08:29:22;100089.31;;;4.71;100.00
64292;BME280;50628;51.008;13.658;2023-04-20T08:34:24;100087.00;;;4.83;100.00
64292;BME280;50628;51.008;13.658;2023-04-20T08:39:26;100076.81;;;4.97;100.00
64292;BME280;50628;51.008;13.658;2023-04-20T08:44:30;100076.75;;;4.81;100.00
64292;BME280;50628;51.008;13.658;2023-04-20T08:49:33;100084.28;;;4.68;100.00
64292;BME280;50628;51.008;13.658;2023-04-20T08:54:35;100091.09;;;4.87;100.00
64292;BME280;50628;51.008;13.658;2023-04-20T08:59:39;100104.34;;;5.30;100.00
64292;BME280;50628;51.008;13.658;2023-04-20T09:04:40;100108.63;;;4.80;100.00
64292;BME280;50628;51.008;13.658;2023-04-20T09:09:53;100090.09;;;5.38;100.00
64292;BME280;50628;51.008;13.658;2023-04-20T09:15:04;100083.53;;;5.49;100.00
64292;BME280;50628;51.008;13.658;2023-04-20T09:20:07;100084.03;;;5.71;100.00
64292;BME280;50628;51.008;13.658;2023-04-20T09:25:14;100090.03;;;5.88;100.00
64292;BME280;50628;51.008;13.658;2023-04-20T09:30:17;100085.19;;;5.81;100.00
64292;BME280;50628;51.008;13.658;2023-04-20T09:35:22;100081.88;;;5.48;100.00
64292;BME280;50628;51.008;13.658;2023-04-20T09:40:26;100078.06;;;5.55;100.00
64292;BME280;50628;51.008;13.658;2023-04-20T09:45:30;100067.72;;;5.71;100.00
64292;BME280;50628;51.008;13.658;2023-04-20T09:50:34;100062.22;;;5.29;100.00
64292;BME280;50628;51.008;13.658;2023-04-20T09:55:37;100075.59;;;5.83;100.00
64292;BME280;50628;51.008;13.658;2023-04-20T10:00:41;100071.00;;;6.20;100.00
64292;BME280;50628;51.008;13.658;2023-04-20T10:05:43;100067.78;;;6.01;100.00
64292;BME280;50628;51.008;13.658;2023-04-20T10:10:45;100064.13;;;6.05;100.00
64292;BME280;50628;51.008;13.658;2023-04-20T10:15:49;100062.03;;;5.80;100.00
64292;BME280;50628;51.008;13.658;2023-04-20T10:21:03;100063.38;;;6.17;100.00
64292;BME280;50628;51.008;13.658;2023-04-20T10:26:05;100057.13;;;6.21;100.00
64292;BME280;50628;51.008;13.658;2023-04-20T10:31:11;100043.59;;;6.02;100.00
64292;BME280;50628;51.008;13.658;2023-04-20T10:36:22;100036.19;;;6.26;100.00
64292;BME280;50628;51.008;13.658;2023-04-20T10:41:24;100044.44;;;6.47;100.00
64292;BME280;50628;51.008;13.658;2023-04-20T10:46:28;100050.25;;;6.36;100.00
64292;BME280;50628;51.008;13.658;2023-04-20T10:51:30;100034.13;;;6.17;100.00
64292;BME280;50628;51.008;13.658;2023-04-20T10:56:39;100036.00;;;6.29;100.00
64292;BME280;50628;51.008;13.658;2023-04-20T11:01:43;100030.72;;;6.16;100.00
64292;BME280;50628;51.008;13.658;2023-04-20T11:06:46;100015.66;;;6.09;100.00
64292;BME280;50628;51.008;13.658;2023-04-20T11:11:57;100019.22;;;6.36;100.00
64292;BME280;50628;51.008;13.658;2023-04-20T11:17:02;100022.63;;;6.37;100.00
64292;BME280;50628;51.008;13.658;2023-04-20T11:22:05;100015.91;;;6.34;100.00
64292;BME280;50628;51.008;13.658;2023-04-20T11:27:07;100001.50;;;6.30;100.00
64292;BME280;50628;51.008;13.658;2023-04-20T11:32:21;99999.75;;;6.45;100.00
64292;BME280;50628;51.008;13.658;2023-04-20T11:37:23;100003.75;;;6.79;100.00
64292;BME280;50628;51.008;13.658;2023-04-20T11:42:25;100001.25;;;6.63;100.00
64292;BME280;50628;51.008;13.658;2023-04-20T11:47:28;99988.66;;;6.57;100.00
64292;BME280;50628;51.008;13.658;2023-04-20T11:52:30;99996.72;;;6.67;100.00
64292;BME280;50628;51.008;13.658;2023-04-20T11:57:32;99992.16;;;6.99;100.00
64292;BME280;50628;51.008;13.658;2023-04-20T12:02:35;100000.94;;;6.82;100.00
64292;BME280;50628;51.008;13.658;2023-04-20T12:07:37;99992.84;;;6.88;100.00
64292;BME280;50628;51.008;13.658;2023-04-20T12:12:39;99990.69;;;6.95;100.00
64292;BME280;50628;51.008;13.658;2023-04-20T12:17:42;99998.25;;;7.12;100.00
64292;BME280;50628;51.008;13.658;2023-04-20T12:22:44;99986.03;;;7.14;100.00
64292;BME280;50628;51.008;13.658;2023-04-20T12:27:46;99985.72;;;7.33;100.00
64292;BME280;50628;51.008;13.658;2023-04-20T12:32:49;99980.88;;;7.42;100.00
64292;BME280;50628;51.008;13.658;2023-04-20T12:37:51;99969.09;;;7.50;100.00
64292;BME280;50628;51.008;13.658;2023-04-20T12:42:53;99963.47;;;7.84;100.00
64292;BME280;50628;51.008;13.658;2023-04-20T12:47:57;99963.63;;;7.95;100.00
64292;BME280;50628;51.008;13.658;2023-04-20T12:52:59;99957.97;;;7.75;100.00
64292;BME280;50628;51.008;13.658;2023-04-20T12:58:01;99952.06;;;7.73;100.00
64292;BME280;50628;51.008;13.658;2023-04-20T13:03:05;99954.78;;;7.72;100.00
64292;BME280;50628;51.008;13.658;2023-04-20T13:08:07;99940.59;;;8.03;100.00
64292;BME280;50628;51.008;13.658;2023-04-20T13:13:09;99941.56;;;8.15;100.00
64292;BME280;50628;51.008;13.658;2023-04-20T13:18:12;99937.09;;;8.30;100.00
64292;BME280;50628;51.008;13.658;2023-04-20T13:23:14;99929.56;;;8.39;100.00
64292;BME280;50628;51.008;13.658;2023-04-20T13:28:17;99928.19;;;8.59;100.00
64292;BME280;50628;51.008;13.658;2023-04-20T13:33:20;99925.34;;;8.75;100.00
64292;BME280;50628;51.008;13.658;2023-04-20T13:38:22;99918.81;;;8.70;100.00
64292;BME280;50628;51.008;13.658;2023-04-20T13:43:24;99915.84;;;8.50;100.00
64292;BME280;50628;51.008;13.658;2023-04-20T13:48:27;99914.69;;;8.54;100.00
64292;BME280;50628;51.008;13.658;2023-04-20T13:53:29;99911.13;;;8.68;100.00
64292;BME280;50628;51.008;13.658;2023-04-20T13:58:31;99907.19;;;8.99;100.00
64292;BME280;50628;51.008;13.658;2023-04-20T14:03:34;99896.19;;;9.79;100.00
64292;BME280;50628;51.008;13.658;2023-04-20T14:08:36;99891.41;;;10.65;100.00
64292;BME280;50628;51.008;13.658;2023-04-20T14:13:38;99893.59;;;10.92;100.00
64292;BME280;50628;51.008;13.658;2023-04-20T14:18:42;99885.94;;;10.68;100.00
64292;BME280;50628;51.008;13.658;2023-04-20T14:23:43;99881.72;;;10.33;100.00
64292;BME280;50628;51.008;13.658;2023-04-20T14:28:45;99876.81;;;10.85;100.00
64292;BME280;50628;51.008;13.658;2023-04-20T14:33:50;99864.00;;;11.25;100.00
64292;BME280;50628;51.008;13.658;2023-04-20T14:38:51;99874.69;;;10.78;100.00
64292;BME280;50628;51.008;13.658;2023-04-20T14:43:54;99871.00;;;10.92;100.00
64292;BME280;50628;51.008;13.658;2023-04-20T14:48:58;99872.78;;;10.80;100.00
64292;BME280;50628;51.008;13.658;2023-04-20T14:54:00;99865.69;;;10.82;100.00
64292;BME280;50628;51.008;13.658;2023-04-20T14:59:02;99859.56;;;10.72;100.00
64292;BME280;50628;51.008;13.658;2023-04-20T15:04:05;99854.66;;;10.90;100.00
64292;BME280;50628;51.008;13.658;2023-04-20T15:09:07;99867.00;;;10.77;100.00
64292;BME280;50628;51.008;13.658;2023-04-20T15:14:10;99856.78;;;10.96;100.00
64292;BME280;50628;51.008;13.658;2023-04-20T15:19:13;99849.38;;;11.13;100.00
64292;BME280;50628;51.008;13.658;2023-04-20T15:24:15;99836.97;;;11.37;100.00
64292;BME280;50628;51.008;13.658;2023-04-20T15:29:17;99827.59;;;11.56;100.00
64292;BME280;50628;51.008;13.658;2023-04-20T15:34:20;99816.75;;;11.51;100.00
64292;BME280;50628;51.008;13.658;2023-04-20T15:39:22;99821.19;;;11.39;100.00
64292;BME280;50628;51.008;13.658;2023-04-20T15:44:24;99809.06;;;11.49;100.00
64292;BME280;50628;51.008;13.658;2023-04-20T15:49:27;99795.88;;;11.51;100.00
64292;BME280;50628;51.008;13.658;2023-04-20T15:54:29;99794.22;;;11.70;100.00
64292;BME280;50628;51.008;13.658;2023-04-20T15:59:31;99791.81;;;11.58;100.00
64292;BME280;50628;51.008;13.658;2023-04-20T16:04:34;99799.84;;;11.45;100.00
64292;BME280;50628;51.008;13.658;2023-04-20T16:09:36;99794.28;;;11.38;100.00
64292;BME280;50628;51.008;13.658;2023-04-20T16:14:38;99797.50;;;11.42;100.00
64292;BME280;50628;51.008;13.658;2023-04-20T16:19:41;99798.75;;;11.47;100.00
64292;BME280;50628;51.008;13.658;2023-04-20T16:24:43;99799.47;;;11.50;100.00
64292;BME280;50628;51.008;13.658;2023-04-20T16:29:45;99800.78;;;11.44;100.00
64292;BME280;50628;51.008;13.658;2023-04-20T16:34:48;99799.19;;;11.53;100.00
64292;BME280;50628;51.008;13.658;2023-04-20T16:39:50;99792.56;;;11.48;100.00
64292;BME280;50628;51.008;13.658;2023-04-20T16:44:53;99795.53;;;11.34;100.00
64292;BME280;50628;51.008;13.658;2023-04-20T16:49:57;99799.59;;;11.27;100.00
64292;BME280;50628;51.008;13.658;2023-04-20T16:54:59;99794.75;;;11.22;100.00
64292;BME280;50628;51.008;13.658;2023-04-20T17:00:01;99797.97;;;11.15;100.00
64292;BME280;50628;51.008;13.658;2023-04-20T17:05:07;99794.34;;;11.06;100.00
64292;BME280;50628;51.008;13.658;2023-04-20T17:10:09;99795.56;;;11.02;100.00
64292;BME280;50628;51.008;13.658;2023-04-20T17:15:11;99798.44;;;10.88;100.00
64292;BME280;50628;51.008;13.658;2023-04-20T17:20:15;99799.66;;;10.83;100.00
64292;BME280;50628;51.008;13.658;2023-04-20T17:25:16;99804.06;;;10.72;100.00
64292;BME280;50628;51.008;13.658;2023-04-20T17:30:18;99804.00;;;10.51;100.00
64292;BME280;50628;51.008;13.658;2023-04-20T17:35:22;99806.63;;;10.39;100.00
64292;BME280;50628;51.008;13.658;2023-04-20T17:40:24;99803.19;;;10.16;100.00
64292;BME280;50628;51.008;13.658;2023-04-20T17:45:26;99800.47;;;10.07;100.00
64292;BME280;50628;51.008;13.658;2023-04-20T17:50:29;99807.22;;;9.98;100.00
64292;BME280;50628;51.008;13.658;2023-04-20T17:55:31;99799.56;;;9.85;100.00
64292;BME280;50628;51.008;13.658;2023-04-20T18:00:33;99800.59;;;9.60;100.00
64292;BME280;50628;51.008;13.658;2023-04-20T18:05:37;99814.00;;;9.43;100.00
64292;BME280;50628;51.008;13.658;2023-04-20T18:10:38;99809.56;;;9.21;100.00
64292;BME280;50628;51.008;13.658;2023-04-20T18:15:40;99810.81;;;9.04;100.00
64292;BME280;50628;51.008;13.658;2023-04-20T18:20:44;99810.22;;;9.00;100.00
64292;BME280;50628;51.008;13.658;2023-04-20T18:25:46;99810.28;;;8.87;100.00
64292;BME280;50628;51.008;13.658;2023-04-20T18:30:47;99818.81;;;8.77;100.00
64292;BME280;50628;51.008;13.658;2023-04-20T18:35:51;99823.41;;;8.73;100.00
64292;BME280;50628;51.008;13.658;2023-04-20T18:40:53;99822.00;;;8.56;100.00
64292;BME280;50628;51.008;13.658;2023-04-20T18:45:55;99831.16;;;8.49;100.00
64292;BME280;50628;51.008;13.658;2023-04-20T18:50:58;99828.91;;;8.44;100.00
64292;BME280;50628;51.008;13.658;2023-04-20T18:56:01;99828.50;;;8.25;100.00
64292;BME280;50628;51.008;13.658;2023-04-20T19:01:03;99831.34;;;8.09;100.00
64292;BME280;50628;51.008;13.658;2023-04-20T19:06:06;99833.00;;;7.97;100.00
64292;BME280;50628;51.008;13.658;2023-04-20T19:11:08;99840.34;;;7.91;100.00
64292;BME280;50628;51.008;13.658;2023-04-20T19:16:10;99847.50;;;7.87;100.00
64292;BME280;50628;51.008;13.658;2023-04-20T19:21:14;99841.00;;;7.82;100.00
64292;BME280;50628;51.008;13.658;2023-04-20T19:26:16;99851.22;;;7.70;100.00
64292;BME280;50628;51.008;13.658;2023-04-20T19:31:18;99854.13;;;7.66;100.00
64292;BME280;50628;51.008;13.658;2023-04-20T19:36:22;99857.03;;;7.61;100.00
64292;BME280;50628;51.008;13.658;2023-04-20T19:41:25;99856.91;;;7.63;100.00
64292;BME280;50628;51.008;13.658;2023-04-20T19:46:27;99863.56;;;7.54;100.00
64292;BME280;50628;51.008;13.658;2023-04-20T19:51:31;99860.00;;;7.42;100.00
64292;BME280;50628;51.008;13.658;2023-04-20T19:56:33;99862.06;;;7.37;100.00
64292;BME280;50628;51.008;13.658;2023-04-20T20:01:36;99862.16;;;7.35;100.00
64292;BME280;50628;51.008;13.658;2023-04-20T20:06:39;99860.56;;;7.20;100.00
64292;BME280;50628;51.008;13.658;2023-04-20T20:11:43;99866.97;;;7.14;100.00
64292;BME280;50628;51.008;13.658;2023-04-20T20:16:48;99863.25;;;7.19;100.00
64292;BME280;50628;51.008;13.658;2023-04-20T20:21:51;99871.13;;;7.17;100.00
64292;BME280;50628;51.008;13.658;2023-04-20T20:26:53;99865.69;;;7.07;100.00
64292;BME280;50628;51.008;13.658;2023-04-20T20:31:55;99877.81;;;7.07;100.00
64292;BME280;50628;51.008;13.658;2023-04-20T20:36:58;99875.22;;;7.07;100.00
64292;BME280;50628;51.008;13.658;2023-04-20T20:42:02;99875.22;;;7.07;100.00
64292;BME280;50628;51.008;13.658;2023-04-20T20:47:04;99875.81;;;6.98;100.00
64292;BME280;50628;51.008;13.658;2023-04-20T20:52:08;99872.84;;;7.04;100.00
64292;BME280;50628;51.008;13.658;2023-04-20T20:57:09;99881.03;;;6.83;100.00
64292;BME280;50628;51.008;13.658;2023-04-20T21:02:12;99887.25;;;6.66;100.00
64292;BME280;50628;51.008;13.658;2023-04-20T21:07:16;99892.91;;;6.59;100.00
64292;BME280;50628;51.008;13.658;2023-04-20T21:12:18;99882.47;;;6.46;100.00
64292;BME280;50628;51.008;13.658;2023-04-20T21:17:20;99889.03;;;6.37;100.00
64292;BME280;50628;51.008;13.658;2023-04-20T21:22:24;99890.88;;;6.49;100.00
64292;BME280;50628;51.008;13.658;2023-04-20T21:27:26;99895.59;;;6.28;100.00
64292;BME280;50628;51.008;13.658;2023-04-20T21:32:28;99897.63;;;6.23;100.00
64292;BME280;50628;51.008;13.658;2023-04-20T21:37:31;99895.06;;;6.38;100.00
64292;BME280;50628;51.008;13.658;2023-04-20T21:42:33;99893.03;;;6.28;100.00
64292;BME280;50628;51.008;13.658;2023-04-20T21:47:35;99891.25;;;6.29;100.00
64292;BME280;50628;51.008;13.658;2023-04-20T21:52:38;99893.97;;;5.83;100.00
64292;BME280;50628;51.008;13.658;2023-04-20T21:57:40;99894.66;;;6.01;100.00
64292;BME280;50628;51.008;13.658;2023-04-20T22:02:42;99892.81;;;6.03;100.00
64292;BME280;50628;51.008;13.658;2023-04-20T22:07:46;99889.69;;;5.98;100.00
64292;BME280;50628;51.008;13.658;2023-04-20T22:12:47;99884.59;;;5.96;100.00
64292;BME280;50628;51.008;13.658;2023-04-20T22:17:50;99889.00;;;5.80;100.00
64292;BME280;50628;51.008;13.658;2023-04-20T22:22:53;99888.88;;;5.81;100.00
64292;BME280;50628;51.008;13.658;2023-04-20T22:27:56;99888.69;;;5.70;100.00
64292;BME280;50628;51.008;13.658;2023-04-20T22:32:57;99886.13;;;5.40;100.00
64292;BME280;50628;51.008;13.658;2023-04-20T22:38:01;99889.44;;;5.42;100.00
64292;BME280;50628;51.008;13.658;2023-04-20T22:43:02;99893.28;;;5.35;100.00
64292;BME280;50628;51.008;13.658;2023-04-20T22:48:05;99891.53;;;5.35;100.00
64292;BME280;50628;51.008;13.658;2023-04-20T22:53:08;99897.53;;;5.36;100.00
64292;BME280;50628;51.008;13.658;2023-04-20T22:58:10;99899.34;;;5.34;100.00
64292;BME280;50628;51.008;13.658;2023-04-20T23:03:12;99896.41;;;5.10;100.00
64292;BME280;50628;51.008;13.658;2023-04-20T23:08:15;99896.47;;;5.24;100.00
64292;BME280;50628;51.008;13.658;2023-04-20T23:13:20;99904.03;;;5.11;100.00
64292;BME280;50628;51.008;13.658;2023-04-20T23:18:24;99902.09;;;5.31;100.00
64292;BME280;50628;51.008;13.658;2023-04-20T23:23:27;99893.91;;;5.08;100.00
64292;BME280;50628;51.008;13.658;2023-04-20T23:28:29;99902.25;;;4.97;100.00
64292;BME280;50628;51.008;13.658;2023-04-20T23:33:31;99896.91;;;5.01;100.00
64292;BME280;50628;51.008;13.658;2023-04-20T23:38:34;99902.66;;;4.90;100.00
64292;BME280;50628;51.008;13.658;2023-04-20T23:43:36;99901.97;;;4.70;100.00
64292;BME280;50628;51.008;13.658;2023-04-20T23:48:38;99893.31;;;4.40;100.00
64292;BME280;50628;51.008;13.658;2023-04-20T23:53:42;99898.41;;;4.57;100.00
64292;BME280;50628;51.008;13.658;2023-04-20T23:58:44;99892.09;;;4.63;100.00
